Airfield :
LOGIN :

Register | Disclaimer

   EN    FR    IT 

 










Legend :    VFR   Marginal VFR   IFR   Intensive IFR   Very Intensive IFR
Visi :
Ceiling :
>= 8 km
>= 3000ft
5 to 8 km
1000 to 3000 ft
1500m to 5 km
500 to 1000 ft
800 to 1500m
200 to 500 ft
< 800m
< 200 ft
Symbols :   Thunderstorms  Fog  Heavy snow  Heavy precipitations  Wind > 20 kt
SIGMETs :     Misc.  Thunderstorms  Icing  Turbulence  Mountain Waves  Volcanic Ashes






- Airport Elevation : 794 ft


LKCV - Čáslav Air Base

CURRENT METAR :
  • 071030Z 29009KT 9999 SCT039 SCT045 BKN080 10/03 Q1008 NOSIG RMK BLU BLU

EXPIRED METARs :
  • 071000Z 28016KT 9999 SCT033 BKN048 11/03 Q1008 NOSIG RMK BLU BLU
  • 070930Z 28014KT 9999 SCT030 SCT041 BKN050 11/04 Q1008 NOSIG RMK BLU BLU
  • 070900Z 27015KT 9999 SCT030 BKN047 11/03 Q1007 NOSIG RMK BLU BLU
  • 070830Z 28019KT 9999 SCT029 BKN042 10/03 Q1007 NOSIG RMK BLU BLU
  • 070800Z 28018KT 9999 SCT024 BKN039 09/03 Q1007 NOSIG RMK BLU BLU

TAF TAF LKCV
Valid from the 07 at 06:00 until the 08 at 06:00 UTC


070500Z 0706/0806 28012KT 9999 BKN030
TEMPO 0706/0719 29017G27KT 6000 SHRA SCT012 BKN020TCU
PROB30
TEMPO 0710/0718 32020G35KT 4000 TSRA BKN014CB
BECMG 0718/0720 30008KT CAVOK
PROB30
TEMPO 0804/0806 4000 BR



MET'MAP, your aeronautical weather chart ! - Copyright ORBIFLY December 2007 - Disclaimer

ORBIFLY MET'MAP TEAM :

Programming & Development : Alexandra Zaïnal
Concept & original design : Baudouin d'Aumeries
Assistance for programming : Marc-Olivier Méhu
Technical & hardware support : Manuel Goepfert

Contact : metmap@orbifly.com




SOURCES & CREDITS :

   NOAA